createdAt,value
2023-03-21T00:00:44.878Z,24.70
2023-03-21T00:03:13.233Z,22.70
2023-03-21T00:05:42.397Z,27.27
2023-03-21T00:08:10.160Z,27.33
2023-03-21T00:10:42.787Z,33.20
2023-03-21T00:13:13.504Z,22.40
2023-03-21T00:16:05.965Z,18.50
2023-03-21T00:18:47.204Z,24.75
2023-03-21T00:24:06.560Z,26.35
2023-03-21T00:26:35.583Z,32.40
2023-03-21T00:29:03.140Z,20.48
2023-03-21T00:31:30.720Z,27.52
2023-03-21T00:34:01.451Z,37.13
2023-03-21T00:36:32.117Z,29.02
2023-03-21T00:39:00.891Z,32.03
2023-03-21T00:42:25.388Z,18.23
2023-03-21T00:45:16.678Z,24.58
2023-03-21T00:47:44.365Z,26.02
2023-03-21T00:50:13.039Z,23.48
2023-03-21T00:52:41.402Z,20.15
2023-03-21T00:55:16.856Z,34.63
2023-03-21T00:57:47.569Z,27.35
2023-03-21T01:00:20.241Z,26.27
2023-03-21T01:03:04.271Z,25.55
2023-03-21T01:06:12.628Z,27.90
2023-03-21T01:08:52.365Z,27.08
2023-03-21T01:11:24.417Z,28.20
2023-03-21T01:13:59.597Z,21.55
2023-03-21T01:16:36.126Z,27.90
2023-03-21T01:19:09.431Z,27.35
2023-03-21T01:21:43.312Z,23.25
2023-03-21T01:24:11.302Z,25.80
2023-03-21T01:26:38.826Z,31.48
2023-03-21T01:29:06.708Z,27.17
2023-03-21T01:31:34.501Z,35.50
2023-03-21T01:34:02.107Z,30.58
2023-03-21T01:36:29.958Z,28.20
2023-03-21T01:39:03.357Z,23.25
2023-03-21T01:41:44.150Z,23.27
2023-03-21T01:44:20.739Z,21.65
2023-03-21T01:47:11.666Z,32.45
2023-03-21T01:49:49.771Z,31.67
2023-03-21T01:52:39.202Z,22.83
2023-03-21T01:55:23.921Z,27.08
2023-03-21T01:58:07.383Z,27.83
2023-03-21T02:00:56.765Z,28.17
2023-03-21T02:03:50.384Z,37.73
2023-03-21T02:06:51.618Z,33.90
2023-03-21T02:09:35.311Z,30.08
2023-03-21T02:12:04.927Z,26.83
2023-03-21T02:14:35.872Z,29.17
2023-03-21T02:17:32.533Z,27.95
2023-03-21T02:20:08.874Z,29.33
2023-03-21T02:22:55.905Z,29.17
2023-03-21T02:25:56.950Z,25.63
2023-03-21T02:28:46.086Z,26.33
2023-03-21T02:31:28.539Z,24.83
2023-03-21T02:34:37.993Z,27.63
2023-03-21T02:37:37.550Z,32.00
2023-03-21T02:40:18.253Z,27.08
2023-03-21T02:43:07.218Z,33.75
2023-03-21T02:45:45.135Z,26.90
2023-03-21T02:48:29.250Z,28.05
2023-03-21T02:51:02.859Z,35.60
2023-03-21T02:53:36.856Z,32.17
2023-03-21T02:56:10.819Z,25.30
2023-03-21T02:58:43.820Z,28.80
2023-03-21T03:01:11.650Z,33.55
2023-03-21T03:03:44.888Z,27.45
2023-03-21T03:06:22.081Z,24.23
2023-03-21T03:09:09.138Z,26.42
2023-03-21T03:11:44.703Z,27.08
2023-03-21T03:15:01.883Z,28.50
2023-03-21T03:17:47.850Z,30.77
2023-03-21T03:20:21.599Z,28.67
2023-03-21T03:22:53.531Z,23.42
2023-03-21T03:25:41.719Z,24.17
2023-03-21T03:28:15.587Z,28.10
2023-03-21T03:33:34.876Z,24.50
2023-03-21T03:36:06.531Z,22.20
2023-03-21T03:38:38.856Z,27.25
2023-03-21T03:41:15.427Z,25.77
2023-03-21T03:43:54.128Z,20.67
2023-03-21T03:46:36.706Z,20.80
2023-03-21T03:49:24.240Z,24.08
2023-03-21T03:52:11.964Z,24.02
2023-03-21T03:54:55.098Z,21.50
2023-03-21T03:57:26.488Z,23.55
2023-03-21T03:59:55.604Z,26.40
2023-03-21T04:02:27.877Z,27.60
2023-03-21T04:04:57.834Z,18.08
2023-03-21T04:07:25.672Z,29.30
2023-03-21T04:09:56.004Z,20.90
2023-03-21T04:12:23.975Z,23.08
2023-03-21T04:15:11.037Z,18.13
2023-03-21T04:17:42.970Z,19.05
2023-03-21T04:20:15.192Z,20.55
2023-03-21T04:22:48.700Z,22.27
2023-03-21T04:25:27.445Z,23.85
2023-03-21T04:28:00.166Z,32.00
2023-03-21T04:30:47.077Z,18.42
2023-03-21T04:33:25.852Z,21.75
2023-03-21T04:35:59.140Z,21.30
2023-03-21T04:38:30.844Z,23.60
2023-03-21T04:41:03.399Z,15.95
2023-03-21T04:43:32.137Z,17.45
2023-03-21T04:45:59.938Z,27.35
2023-03-21T04:48:28.183Z,22.20
2023-03-21T04:50:56.636Z,24.13
2023-03-21T04:53:24.096Z,20.63
2023-03-21T04:55:55.274Z,22.80
2023-03-21T04:58:24.139Z,19.75
2023-03-21T05:00:53.176Z,19.33
2023-03-21T05:03:22.004Z,16.35
2023-03-21T05:05:50.147Z,19.88
2023-03-21T05:08:19.805Z,17.70
2023-03-21T05:10:48.022Z,24.45
2023-03-21T05:13:16.051Z,21.00
2023-03-21T05:15:43.715Z,18.23
2023-03-21T05:18:11.110Z,27.25
2023-03-21T05:20:47.116Z,20.08
2023-03-21T05:23:18.504Z,14.88
2023-03-21T05:25:46.183Z,20.77
2023-03-21T05:28:22.514Z,19.63
2023-03-21T05:30:50.791Z,22.75
2023-03-21T05:33:18.626Z,22.27
2023-03-21T05:35:46.545Z,19.42
2023-03-21T05:38:14.161Z,24.02
2023-03-21T05:40:51.594Z,24.40
2023-03-21T05:43:19.274Z,21.45
2023-03-21T05:45:48.386Z,16.05
2023-03-21T05:48:17.716Z,19.27
2023-03-21T05:51:11.482Z,20.42
2023-03-21T05:53:38.921Z,23.50
2023-03-21T05:56:07.068Z,19.77
2023-03-21T05:58:53.075Z,11.70
2023-03-21T06:01:22.551Z,19.83
2023-03-21T06:03:58.623Z,28.63
2023-03-21T06:09:00.550Z,13.35
2023-03-21T06:11:32.327Z,20.98
2023-03-21T06:14:19.769Z,15.05
2023-03-21T06:16:59.800Z,18.65
2023-03-21T06:19:27.581Z,16.15
2023-03-21T06:22:04.831Z,20.50
2023-03-21T06:24:35.483Z,13.65
2023-03-21T06:27:04.172Z,20.90
2023-03-21T06:29:43.174Z,21.77
2023-03-21T06:32:10.764Z,19.40
2023-03-21T06:34:39.498Z,18.17
2023-03-21T06:37:07.388Z,20.23
2023-03-21T06:39:36.218Z,16.48
2023-03-21T06:42:04.028Z,14.23
2023-03-21T06:44:31.886Z,20.33
2023-03-21T06:47:03.999Z,19.20
2023-03-21T06:49:31.645Z,19.15
2023-03-21T06:52:06.562Z,13.40
2023-03-21T06:54:34.850Z,11.07
2023-03-21T06:57:10.209Z,14.25
2023-03-21T06:59:38.456Z,11.68
2023-03-21T07:04:46.253Z,12.43
2023-03-21T07:07:18.696Z,16.08
2023-03-21T07:09:46.539Z,14.30
2023-03-21T07:12:14.033Z,20.45
2023-03-21T07:15:00.121Z,14.73
2023-03-21T07:17:27.909Z,18.13
2023-03-21T07:19:57.354Z,18.23
2023-03-21T07:22:24.827Z,16.35
2023-03-21T07:25:04.000Z,11.27
2023-03-21T07:27:34.123Z,15.15
2023-03-21T07:30:01.578Z,17.15
2023-03-21T07:32:29.929Z,16.63
2023-03-21T07:34:57.448Z,13.25
2023-03-21T07:37:25.294Z,11.95
2023-03-21T07:39:53.299Z,14.38
2023-03-21T07:42:21.403Z,12.15
2023-03-21T07:44:48.925Z,12.57
2023-03-21T07:47:16.644Z,12.32
2023-03-21T07:52:14.744Z,13.27
2023-03-21T07:54:42.299Z,12.68
2023-03-21T07:57:10.961Z,12.00
2023-03-21T07:59:39.863Z,9.18
2023-03-21T08:02:07.480Z,11.48
2023-03-21T08:04:35.120Z,10.27
2023-03-21T08:07:03.121Z,7.80
2023-03-21T08:09:31.210Z,10.13
2023-03-21T08:11:58.702Z,9.18
2023-03-21T08:14:26.231Z,9.60
2023-03-21T08:16:53.912Z,15.43
2023-03-21T08:19:21.802Z,10.35
2023-03-21T08:21:49.810Z,12.95
2023-03-21T08:24:17.434Z,9.75
2023-03-21T08:26:46.075Z,9.30
2023-03-21T08:29:14.034Z,11.60
2023-03-21T08:31:41.816Z,8.43
2023-03-21T08:34:09.840Z,16.55
2023-03-21T08:36:38.023Z,12.75
2023-03-21T08:39:06.241Z,12.40
2023-03-21T08:41:36.045Z,10.77
2023-03-21T08:44:05.815Z,13.68
2023-03-21T08:46:33.722Z,10.75
2023-03-21T08:49:02.057Z,13.23
2023-03-21T08:51:29.486Z,10.77
2023-03-21T08:53:57.010Z,16.27
2023-03-21T08:56:24.614Z,12.75
2023-03-21T08:58:52.078Z,12.48
2023-03-21T09:01:19.561Z,14.35
2023-03-21T09:03:46.995Z,11.60
2023-03-21T09:06:14.647Z,14.13
2023-03-21T09:08:43.345Z,13.60
2023-03-21T09:11:11.049Z,14.75
2023-03-21T09:13:38.437Z,14.32
2023-03-21T09:16:06.492Z,14.68
2023-03-21T09:18:48.792Z,14.32
2023-03-21T09:21:18.362Z,11.60
2023-03-21T09:23:46.345Z,15.40
2023-03-21T09:26:14.459Z,23.08
2023-03-21T09:28:43.087Z,16.25
2023-03-21T09:31:16.808Z,15.68
2023-03-21T09:33:44.759Z,15.93
2023-03-21T09:36:15.472Z,13.30
2023-03-21T09:38:47.277Z,13.18
2023-03-21T09:41:37.619Z,14.07
2023-03-21T09:44:27.770Z,11.25
2023-03-21T09:47:20.643Z,7.90
2023-03-21T09:50:01.697Z,13.48
2023-03-21T09:53:00.959Z,16.85
2023-03-21T09:55:35.626Z,14.57
2023-03-21T09:58:26.136Z,9.43
2023-03-21T10:01:22.542Z,11.55
2023-03-21T10:03:50.623Z,16.40
2023-03-21T10:06:18.924Z,10.65
2023-03-21T10:08:48.671Z,13.10
2023-03-21T10:11:22.605Z,18.05
2023-03-21T10:14:06.949Z,13.43
2023-03-21T10:16:46.780Z,19.50
2023-03-21T10:19:17.013Z,24.90
2023-03-21T10:22:00.189Z,14.13
2023-03-21T10:24:31.878Z,14.13
2023-03-21T10:27:01.304Z,13.43
2023-03-21T10:29:42.171Z,14.75
2023-03-21T10:32:13.434Z,8.05
2023-03-21T10:37:25.092Z,6.25
2023-03-21T10:39:55.087Z,7.88
2023-03-21T10:42:30.890Z,5.82
2023-03-21T10:44:58.966Z,5.38
2023-03-21T10:47:36.079Z,6.47
2023-03-21T10:50:13.420Z,4.55
2023-03-21T10:52:51.377Z,5.00
2023-03-21T10:55:18.908Z,7.75
2023-03-21T10:57:47.471Z,8.45
2023-03-21T11:00:23.214Z,8.13
2023-03-21T11:02:53.152Z,11.30
2023-03-21T11:05:26.026Z,8.45
2023-03-21T11:08:04.271Z,5.78
2023-03-21T11:10:38.200Z,9.77
2023-03-21T11:13:19.480Z,10.05
2023-03-21T11:15:54.548Z,9.98
2023-03-21T11:18:25.233Z,11.57
2023-03-21T11:21:04.684Z,14.23
2023-03-21T11:23:35.431Z,8.68
2023-03-21T11:26:08.490Z,9.85
2023-03-21T11:28:41.512Z,12.30
2023-03-21T11:31:09.755Z,9.75
2023-03-21T11:34:00.351Z,10.45
2023-03-21T11:36:38.967Z,11.25
2023-03-21T11:39:24.667Z,12.27
2023-03-21T11:41:52.757Z,11.15
2023-03-21T11:44:33.957Z,10.82
2023-03-21T11:47:02.381Z,10.25
2023-03-21T11:49:31.004Z,7.95
2023-03-21T11:52:06.383Z,11.45
2023-03-21T11:54:59.917Z,11.32
2023-03-21T11:58:14.656Z,9.80
2023-03-21T12:01:06.263Z,8.75
2023-03-21T12:03:47.599Z,18.60
2023-03-21T12:06:28.224Z,8.27
2023-03-21T12:08:55.792Z,11.18
2023-03-21T12:11:35.353Z,12.73
2023-03-21T12:14:41.542Z,7.00
2023-03-21T12:17:24.179Z,5.13
2023-03-21T12:19:54.576Z,14.95
2023-03-21T12:22:37.225Z,12.02
2023-03-21T12:25:35.961Z,13.07
2023-03-21T12:28:32.074Z,9.00
2023-03-21T12:31:42.335Z,8.50
2023-03-21T12:34:21.653Z,12.60
2023-03-21T12:36:58.787Z,10.70
2023-03-21T12:39:35.952Z,11.35
2023-03-21T12:42:09.675Z,10.70
2023-03-21T12:44:41.848Z,10.73
2023-03-21T12:47:22.962Z,12.82
2023-03-21T12:50:06.111Z,9.35
2023-03-21T12:52:39.150Z,10.68
2023-03-21T12:55:22.867Z,11.68
2023-03-21T12:57:57.946Z,12.40
2023-03-21T13:00:30.497Z,12.60
2023-03-21T13:03:03.620Z,9.75
2023-03-21T13:05:35.749Z,11.13
2023-03-21T13:08:32.864Z,15.95
2023-03-21T13:11:01.975Z,11.00
2023-03-21T13:13:42.468Z,9.05
2023-03-21T13:16:19.953Z,8.77
2023-03-21T13:19:06.568Z,9.70
2023-03-21T13:21:50.030Z,11.05
2023-03-21T13:24:37.900Z,9.85
2023-03-21T13:27:16.533Z,11.75
2023-03-21T13:29:51.850Z,14.38
2023-03-21T13:32:30.827Z,13.95
2023-03-21T13:35:03.880Z,9.43
2023-03-21T13:37:35.183Z,13.30
2023-03-21T13:40:10.898Z,9.85
2023-03-21T13:42:52.795Z,7.85
2023-03-21T13:45:47.454Z,14.15
2023-03-21T13:48:58.947Z,9.52
2023-03-21T13:51:42.083Z,15.95
2023-03-21T13:54:16.259Z,13.88
2023-03-21T13:56:46.515Z,17.30
2023-03-21T13:59:39.106Z,17.42
2023-03-21T14:02:13.024Z,11.45
2023-03-21T14:04:59.982Z,13.27
2023-03-21T14:07:36.686Z,18.73
2023-03-21T14:10:28.079Z,14.65
2023-03-21T14:12:55.615Z,13.40
2023-03-21T14:15:26.461Z,17.90
2023-03-21T14:18:15.870Z,11.68
2023-03-21T14:20:59.570Z,16.27
2023-03-21T14:23:27.477Z,15.23
2023-03-21T14:25:55.912Z,12.95
2023-03-21T14:28:26.226Z,12.70
2023-03-21T14:31:00.155Z,12.75
2023-03-21T14:33:40.180Z,12.15
2023-03-21T14:36:17.504Z,13.40
2023-03-21T14:39:02.127Z,16.08
2023-03-21T14:41:31.865Z,15.25
2023-03-21T14:44:26.572Z,20.60
2023-03-21T14:47:17.744Z,13.95
2023-03-21T14:49:45.327Z,23.23
2023-03-21T14:52:25.898Z,15.98
2023-03-21T14:54:55.368Z,15.57
2023-03-21T14:57:33.400Z,13.07
2023-03-21T15:00:12.836Z,16.83
2023-03-21T15:02:43.239Z,15.77
2023-03-21T15:05:38.001Z,16.30
2023-03-21T15:08:12.133Z,12.35
2023-03-21T15:10:40.340Z,17.88
2023-03-21T15:13:20.777Z,13.90
2023-03-21T15:15:48.831Z,15.27
2023-03-21T15:18:24.321Z,12.13
2023-03-21T15:20:53.306Z,14.30
2023-03-21T15:23:29.328Z,18.00
2023-03-21T15:25:56.840Z,21.80
2023-03-21T15:28:26.155Z,16.15
2023-03-21T15:30:54.816Z,14.57
2023-03-21T15:33:25.089Z,13.63
2023-03-21T15:35:56.004Z,17.35
2023-03-21T15:38:41.229Z,12.45
2023-03-21T15:41:21.075Z,10.85
2023-03-21T15:44:01.580Z,13.85
2023-03-21T15:46:42.234Z,15.10
2023-03-21T15:49:17.192Z,12.23
2023-03-21T15:52:11.435Z,12.68
2023-03-21T15:54:55.555Z,9.30
2023-03-21T15:57:32.948Z,12.43
2023-03-21T16:00:20.974Z,17.90
2023-03-21T16:02:57.515Z,13.13
2023-03-21T16:05:29.152Z,13.88
2023-03-21T16:08:18.580Z,11.38
2023-03-21T16:10:46.767Z,13.63
2023-03-21T16:13:14.546Z,16.35
2023-03-21T16:15:42.456Z,12.95
2023-03-21T16:18:17.183Z,10.85
2023-03-21T16:20:46.121Z,8.90
2023-03-21T16:23:15.672Z,18.50
2023-03-21T16:25:44.205Z,19.75
2023-03-21T16:28:16.881Z,14.52
2023-03-21T16:30:45.164Z,12.32
2023-03-21T16:33:14.044Z,11.40
2023-03-21T16:35:41.953Z,15.65
2023-03-21T16:38:13.524Z,13.60
2023-03-21T16:40:43.397Z,11.68
2023-03-21T16:43:11.684Z,14.93
2023-03-21T16:45:39.266Z,14.32
2023-03-21T16:48:08.884Z,20.17
2023-03-21T16:50:41.809Z,13.45
2023-03-21T16:53:09.701Z,16.15
2023-03-21T16:55:37.794Z,12.90
2023-03-21T16:58:06.196Z,15.90
2023-03-21T17:00:34.093Z,22.75
2023-03-21T17:03:08.899Z,20.95
2023-03-21T17:05:36.785Z,13.63
2023-03-21T17:08:05.420Z,18.80
2023-03-21T17:10:33.436Z,16.33
2023-03-21T17:13:01.036Z,19.20
2023-03-21T17:15:28.500Z,22.20
2023-03-21T17:17:55.947Z,17.90
2023-03-21T17:20:31.629Z,17.83
2023-03-21T17:22:59.970Z,15.48
2023-03-21T17:25:27.928Z,18.70
2023-03-21T17:27:56.220Z,13.82
2023-03-21T17:30:30.282Z,13.07
2023-03-21T17:32:58.628Z,17.58
2023-03-21T17:35:27.452Z,18.65
2023-03-21T17:37:58.273Z,14.13
2023-03-21T17:40:31.435Z,17.67
2023-03-21T17:43:01.406Z,14.43
2023-03-21T17:45:29.666Z,18.08
2023-03-21T17:47:57.132Z,18.05
2023-03-21T17:50:27.984Z,12.98
2023-03-21T17:52:57.851Z,14.90
2023-03-21T17:55:26.143Z,14.88
2023-03-21T17:57:53.549Z,11.40
2023-03-21T18:00:25.021Z,14.00
2023-03-21T18:02:53.301Z,12.98
2023-03-21T18:05:21.670Z,15.13
2023-03-21T18:08:10.955Z,11.43
2023-03-21T18:10:39.370Z,15.27
2023-03-21T18:13:07.481Z,12.60
2023-03-21T18:15:37.731Z,13.15
2023-03-21T18:23:21.090Z,16.45
2023-03-21T18:25:49.465Z,18.73
2023-03-21T18:28:20.356Z,16.13
2023-03-21T18:33:40.701Z,13.77
2023-03-21T18:36:09.609Z,20.25
2023-03-21T18:38:37.330Z,17.67
2023-03-21T18:41:05.981Z,20.30
2023-03-21T18:44:01.385Z,14.40
2023-03-21T18:46:23.065Z,13.60
2023-03-21T18:48:51.818Z,23.35
2023-03-21T18:51:19.536Z,20.15
2023-03-21T18:53:47.510Z,16.60
2023-03-21T18:56:57.728Z,15.45
2023-03-21T18:59:04.994Z,19.58
2023-03-21T19:01:32.900Z,23.40
2023-03-21T19:04:20.032Z,14.65
2023-03-21T19:06:50.169Z,22.00
2023-03-21T19:09:18.779Z,22.83
2023-03-21T19:11:47.200Z,25.67
2023-03-21T19:14:16.888Z,27.42
2023-03-21T19:17:26.467Z,29.08
2023-03-21T19:19:33.754Z,26.05
2023-03-21T19:22:02.177Z,23.55
2023-03-21T19:24:29.941Z,31.30
2023-03-21T19:26:58.100Z,25.55
2023-03-21T19:29:25.776Z,20.15
2023-03-21T19:31:53.617Z,22.42
2023-03-21T19:34:21.907Z,24.35
2023-03-21T19:36:52.057Z,35.35
2023-03-21T19:39:22.786Z,25.77
2023-03-21T19:41:51.464Z,30.20
2023-03-21T19:44:21.621Z,27.52
2023-03-21T19:46:51.060Z,32.60
2023-03-21T19:49:20.119Z,28.48
2023-03-21T19:51:48.350Z,32.05
2023-03-21T19:54:17.931Z,27.92
2023-03-21T19:56:48.207Z,49.35
2023-03-21T19:59:17.189Z,46.92
2023-03-21T20:01:45.863Z,30.80
2023-03-21T20:04:14.780Z,35.85
2023-03-21T20:06:42.260Z,29.52
2023-03-21T20:09:49.628Z,34.25
2023-03-21T20:12:00.525Z,30.67
2023-03-21T20:14:28.004Z,30.25
2023-03-21T20:16:57.130Z,35.00
2023-03-21T20:19:24.959Z,21.50
2023-03-21T20:21:58.791Z,27.90
2023-03-21T20:24:28.179Z,29.85
2023-03-21T20:26:57.361Z,22.27
2023-03-21T20:32:13.219Z,30.60
2023-03-21T20:34:40.805Z,34.22
2023-03-21T20:37:09.893Z,30.50
2023-03-21T20:39:37.422Z,33.75
2023-03-21T20:42:05.526Z,35.40
2023-03-21T20:44:58.242Z,33.53
2023-03-21T20:47:20.949Z,32.05
2023-03-21T20:49:49.834Z,21.73
2023-03-21T20:55:06.939Z,37.40
2023-03-21T20:57:37.597Z,26.05
2023-03-21T21:00:15.121Z,30.65
2023-03-21T21:02:47.424Z,21.90
2023-03-21T21:05:29.966Z,16.27
2023-03-21T21:08:00.769Z,21.58
2023-03-21T21:10:28.772Z,25.73
2023-03-21T21:12:56.812Z,29.23
2023-03-21T21:15:24.639Z,26.90
2023-03-21T21:18:05.375Z,27.58
2023-03-21T21:20:35.489Z,23.13
2023-03-21T21:23:03.043Z,19.25
2023-03-21T21:25:34.766Z,18.13
2023-03-21T21:28:03.956Z,29.30
2023-03-21T21:30:32.613Z,21.15
2023-03-21T21:33:00.959Z,25.23
2023-03-21T21:35:28.716Z,17.52
2023-03-21T21:37:56.473Z,22.90
2023-03-21T21:40:24.255Z,19.27
2023-03-21T21:42:52.638Z,27.80
2023-03-21T21:45:20.521Z,16.38
2023-03-21T21:47:48.399Z,16.55
2023-03-21T21:50:15.948Z,23.40
2023-03-21T21:52:46.473Z,24.27
2023-03-21T21:55:17.901Z,21.83
2023-03-21T21:57:50.244Z,17.85
2023-03-21T22:00:19.663Z,24.98
2023-03-21T22:02:47.365Z,21.23
2023-03-21T22:05:14.950Z,15.70
2023-03-21T22:07:42.601Z,20.92
2023-03-21T22:10:11.518Z,25.33
2023-03-21T22:12:39.166Z,24.58
2023-03-21T22:15:08.177Z,17.95
2023-03-21T22:17:36.289Z,26.10
2023-03-21T22:20:06.888Z,18.75
2023-03-21T22:22:35.058Z,16.33
2023-03-21T22:25:04.621Z,28.42
2023-03-21T22:27:33.498Z,22.65
2023-03-21T22:30:04.765Z,20.23
2023-03-21T22:32:38.120Z,30.58
2023-03-21T22:35:06.975Z,26.55
2023-03-21T22:37:36.640Z,34.30
2023-03-21T22:40:08.173Z,21.05
2023-03-21T22:42:37.167Z,19.25
2023-03-21T22:45:06.103Z,22.77
2023-03-21T22:47:33.493Z,29.42
2023-03-21T22:50:01.202Z,34.20
2023-03-21T22:52:28.595Z,19.90
2023-03-21T22:54:56.240Z,23.80
2023-03-21T22:57:23.872Z,23.35
2023-03-21T22:59:52.190Z,18.42
2023-03-21T23:02:19.781Z,22.40
2023-03-21T23:04:47.477Z,19.25
2023-03-21T23:07:15.588Z,25.52
2023-03-21T23:09:43.814Z,23.83
2023-03-21T23:12:11.530Z,27.38
2023-03-21T23:14:39.616Z,14.60
2023-03-21T23:17:10.011Z,25.33
2023-03-21T23:19:39.298Z,23.77
2023-03-21T23:24:36.194Z,23.92
2023-03-21T23:27:03.713Z,26.23
2023-03-21T23:29:31.310Z,23.20
2023-03-21T23:31:58.973Z,23.77
2023-03-21T23:34:28.026Z,13.40
2023-03-21T23:36:55.627Z,16.48
2023-03-21T23:39:23.135Z,19.02
2023-03-21T23:41:50.799Z,18.83
2023-03-21T23:44:18.405Z,13.77
2023-03-21T23:46:46.087Z,15.18
2023-03-21T23:49:15.052Z,12.02
2023-03-21T23:51:42.703Z,15.27
2023-03-21T23:54:10.706Z,18.98
2023-03-21T23:56:38.570Z,20.90
2023-03-21T23:59:06.244Z,13.45
